Time;durP1;ratioP1;P1;durP2;ratioP2;P2;SDS_P1;SDS_P2;PMS_P1;PMS_P2;Temp;Humidity;BMP_temperature;BMP_pressure;BME280_temperature;BME280_humidity;BME280_pressure;Samples;Min_cycle;Max_cycle;Signal;HPM_P1;HPM_P2
2021/09/17 00:00:40;;;;;;;5.90;3.70;;;;;;;;;;5114139;28;20479;-58
2021/09/17 00:03:09;;;;;;;12.80;5.30;;;;;;;;;;5114396;28;20497;-61
2021/09/17 00:05:38;;;;;;;8.20;5.00;;;;;;;;;;5114106;28;20462;-58
2021/09/17 00:08:06;;;;;;;12.23;8.07;;;;;;;;;;5114305;28;20457;-58
2021/09/17 00:10:33;;;;;;;11.00;7.47;;;;;;;;;;5114230;28;20811;-58
2021/09/17 00:13:00;;;;;;;8.43;5.00;;;;;;;;;;5114870;28;20505;-59
2021/09/17 00:15:28;;;;;;;8.77;4.33;;;;;;;;;;5134162;28;20446;-60
2021/09/17 00:18:10;;;;;;;8.60;4.17;;;;;;;;;;5134583;28;20449;-61
2021/09/17 00:20:38;;;;;;;7.37;4.10;;;;;;;;;;5134886;28;20450;-58
2021/09/17 00:23:05;;;;;;;8.30;4.10;;;;;;;;;;5135120;28;20454;-57
2021/09/17 00:25:45;;;;;;;9.27;3.10;;;;;;;;;;5134351;28;20465;-57
2021/09/17 00:28:12;;;;;;;7.10;2.77;;;;;;;;;;5119888;28;20478;-60
2021/09/17 00:30:40;;;;;;;6.20;3.27;;;;;;;;;;5114690;28;20447;-60
2021/09/17 00:33:43;;;;;;;4.30;2.60;;;;;;;;;;5114414;28;20487;-57
2021/09/17 00:36:12;;;;;;;4.07;2.40;;;;;;;;;;5112529;28;20551;-62
2021/09/17 00:38:39;;;;;;;6.53;2.40;;;;;;;;;;5114126;28;20481;-54
2021/09/17 00:41:10;;;;;;;12.30;3.10;;;;;;;;;;5114037;28;20459;-59
2021/09/17 00:43:38;;;;;;;4.47;2.83;;;;;;;;;;5114041;28;20473;-56
2021/09/17 00:46:05;;;;;;;11.33;3.80;;;;;;;;;;5114443;28;20435;-60
2021/09/17 00:48:45;;;;;;;5.03;3.57;;;;;;;;;;5113962;28;20451;-56
2021/09/17 00:51:14;;;;;;;5.43;2.73;;;;;;;;;;5113811;28;20520;-53
2021/09/17 00:53:41;;;;;;;11.47;3.47;;;;;;;;;;5114001;28;20483;-59
2021/09/17 00:56:17;;;;;;;5.23;2.90;;;;;;;;;;5114085;28;20467;-59
2021/09/17 00:58:44;;;;;;;4.13;2.70;;;;;;;;;;5117062;28;20454;-58
2021/09/17 01:01:11;;;;;;;4.40;2.73;;;;;;;;;;5117693;28;20490;-60
2021/09/17 01:03:41;;;;;;;7.10;3.10;;;;;;;;;;5118277;28;20728;-57
2021/09/17 01:06:11;;;;;;;5.93;2.67;;;;;;;;;;5118123;28;20455;-58
2021/09/17 01:08:40;;;;;;;6.40;3.40;;;;;;;;;;5117799;28;20827;-63
2021/09/17 01:11:12;;;;;;;4.63;2.87;;;;;;;;;;5117715;28;20798;-59
2021/09/17 01:13:40;;;;;;;5.90;3.43;;;;;;;;;;5117810;28;20483;-59
2021/09/17 01:16:07;;;;;;;5.10;2.90;;;;;;;;;;5117767;28;20800;-61
2021/09/17 01:18:40;;;;;;;4.53;3.10;;;;;;;;;;5117936;28;20451;-61
2021/09/17 01:21:09;;;;;;;4.53;3.00;;;;;;;;;;5117606;28;20466;-59
2021/09/17 01:23:37;;;;;;;6.60;3.60;;;;;;;;;;5117094;28;20455;-57
2021/09/17 01:26:05;;;;;;;8.33;3.23;;;;;;;;;;5117788;28;20459;-61
2021/09/17 01:28:34;;;;;;;6.00;3.03;;;;;;;;;;5117143;28;20486;-54
2021/09/17 01:31:01;;;;;;;5.87;3.20;;;;;;;;;;5117097;28;20486;-56
2021/09/17 01:33:32;;;;;;;8.00;3.57;;;;;;;;;;5117211;28;20479;-61
2021/09/17 01:35:59;;;;;;;5.70;3.70;;;;;;;;;;5116709;28;20483;-58
2021/09/17 01:38:29;;;;;;;8.60;2.47;;;;;;;;;;5117355;28;20455;-51
2021/09/17 01:41:22;;;;;;;5.20;3.10;;;;;;;;;;5116888;28;20438;-60
2021/09/17 01:43:50;;;;;;;9.43;3.30;;;;;;;;;;5116493;28;20451;-61
2021/09/17 01:46:18;;;;;;;7.97;3.50;;;;;;;;;;5117318;28;20455;-61
2021/09/17 01:48:49;;;;;;;6.27;3.33;;;;;;;;;;5116902;28;20529;-57
2021/09/17 01:51:16;;;;;;;8.43;4.23;;;;;;;;;;5116711;28;20456;-60
2021/09/17 01:53:45;;;;;;;7.87;3.60;;;;;;;;;;5116175;28;20520;-60
2021/09/17 01:56:23;;;;;;;5.83;3.27;;;;;;;;;;5117829;28;20487;-58
2021/09/17 01:58:51;;;;;;;5.73;3.47;;;;;;;;;;5117425;28;20525;-53
2021/09/17 02:01:18;;;;;;;5.60;3.30;;;;;;;;;;5116659;28;20474;-56
2021/09/17 02:03:45;;;;;;;5.87;3.40;;;;;;;;;;5116273;28;20507;-60
2021/09/17 02:06:18;;;;;;;5.07;3.50;;;;;;;;;;5116051;28;20443;-61
2021/09/17 02:09:21;;;;;;;6.20;3.27;;;;;;;;;;5116507;28;20507;-56
2021/09/17 02:11:49;;;;;;;9.03;4.20;;;;;;;;;;5096375;28;20478;-57
2021/09/17 02:14:17;;;;;;;5.67;3.53;;;;;;;;;;5107191;28;20471;-59
2021/09/17 02:16:50;;;;;;;6.27;3.10;;;;;;;;;;5116885;28;20721;-58
2021/09/17 02:19:17;;;;;;;6.53;3.33;;;;;;;;;;5117027;28;20459;-57
2021/09/17 02:21:49;;;;;;;6.40;3.33;;;;;;;;;;5116569;28;20463;-58
2021/09/17 02:24:29;;;;;;;6.20;3.50;;;;;;;;;;5116494;28;20467;-56
2021/09/17 02:26:58;;;;;;;6.93;3.30;;;;;;;;;;5116361;28;20803;-57
2021/09/17 02:29:25;;;;;;;13.33;4.20;;;;;;;;;;5116507;28;20439;-58
2021/09/17 02:32:23;;;;;;;4.60;3.47;;;;;;;;;;5115470;28;20481;-58
2021/09/17 02:34:51;;;;;;;6.57;4.10;;;;;;;;;;5115381;28;20479;-54
2021/09/17 02:37:18;;;;;;;6.53;4.10;;;;;;;;;;5115254;28;20459;-58
2021/09/17 02:39:46;;;;;;;11.63;4.13;;;;;;;;;;5075613;28;20453;-56
2021/09/17 02:42:15;;;;;;;6.93;3.70;;;;;;;;;;5094209;28;20448;-59
2021/09/17 02:44:42;;;;;;;5.00;3.47;;;;;;;;;;5095457;28;20432;-58
2021/09/17 02:47:17;;;;;;;6.70;4.00;;;;;;;;;;5095549;28;20463;-56
2021/09/17 02:49:44;;;;;;;6.77;4.40;;;;;;;;;;5095316;28;20435;-57
2021/09/17 02:52:12;;;;;;;10.87;3.70;;;;;;;;;;5095331;28;20467;-59
2021/09/17 02:54:41;;;;;;;5.30;3.90;;;;;;;;;;5095364;28;20492;-54
2021/09/17 02:57:08;;;;;;;5.90;3.97;;;;;;;;;;5112029;28;20452;-58
2021/09/17 02:59:36;;;;;;;7.93;4.10;;;;;;;;;;5111879;28;20456;-55
2021/09/17 03:02:24;;;;;;;4.60;4.00;;;;;;;;;;5095276;28;20455;-61
2021/09/17 03:04:53;;;;;;;10.33;4.63;;;;;;;;;;5095557;28;20452;-55
2021/09/17 03:07:22;;;;;;;9.93;4.47;;;;;;;;;;5099724;28;20463;-64
2021/09/17 03:09:53;;;;;;;6.37;4.10;;;;;;;;;;5112713;28;20455;-59
2021/09/17 03:12:21;;;;;;;8.17;6.50;;;;;;;;;;5108662;28;20525;-60
2021/09/17 03:14:51;;;;;;;12.40;5.63;;;;;;;;;;5115749;28;20497;-58
2021/09/17 03:17:36;;;;;;;9.47;5.43;;;;;;;;;;5115345;28;20772;-59
2021/09/17 03:20:03;;;;;;;7.57;4.80;;;;;;;;;;5114774;28;20456;-59
2021/09/17 03:22:30;;;;;;;5.60;4.43;;;;;;;;;;5115255;28;20454;-56
2021/09/17 03:25:14;;;;;;;7.63;4.57;;;;;;;;;;5115385;28;20455;-57
2021/09/17 03:27:41;;;;;;;7.50;4.30;;;;;;;;;;5115694;28;20447;-58
2021/09/17 03:30:11;;;;;;;7.27;4.07;;;;;;;;;;5115892;28;20460;-62
2021/09/17 03:32:38;;;;;;;9.37;4.70;;;;;;;;;;5111812;28;20448;-55
2021/09/17 03:35:06;;;;;;;8.57;4.43;;;;;;;;;;5115301;28;20483;-58
2021/09/17 03:37:39;;;;;;;6.50;4.27;;;;;;;;;;5115320;28;20474;-59
2021/09/17 03:40:07;;;;;;;6.37;4.10;;;;;;;;;;5114966;28;20459;-53
2021/09/17 03:42:34;;;;;;;7.27;4.17;;;;;;;;;;5114797;28;20459;-51
2021/09/17 03:45:19;;;;;;;8.10;3.90;;;;;;;;;;5115456;28;20461;-57
2021/09/17 03:47:57;;;;;;;7.17;4.70;;;;;;;;;;5114916;28;20494;-53
2021/09/17 03:50:25;;;;;;;7.80;5.03;;;;;;;;;;5114742;28;20463;-58
2021/09/17 03:52:59;;;;;;;6.13;4.53;;;;;;;;;;5114974;28;20420;-58
2021/09/17 03:55:27;;;;;;;10.70;5.20;;;;;;;;;;5114578;28;20482;-60
2021/09/17 03:57:54;;;;;;;6.90;4.20;;;;;;;;;;5114913;28;20505;-57
2021/09/17 04:00:24;;;;;;;8.73;5.03;;;;;;;;;;5115294;28;20467;-60
2021/09/17 04:02:52;;;;;;;9.63;4.53;;;;;;;;;;5114698;28;20516;-55
2021/09/17 04:05:19;;;;;;;9.40;6.23;;;;;;;;;;5115321;28;20455;-53
2021/09/17 04:07:53;;;;;;;8.03;5.03;;;;;;;;;;5115232;28;20459;-58
2021/09/17 04:10:21;;;;;;;7.40;4.97;;;;;;;;;;5114794;28;20517;-59
2021/09/17 04:12:48;;;;;;;10.70;5.50;;;;;;;;;;5114534;28;20475;-60
2021/09/17 04:18:25;;;;;;;8.40;5.30;;;;;;;;;;5094987;28;20506;-52
2021/09/17 04:20:52;;;;;;;5.83;4.40;;;;;;;;;;5112241;28;20451;-58
2021/09/17 04:23:20;;;;;;;10.13;5.50;;;;;;;;;;5104164;28;20533;-59
2021/09/17 04:25:47;;;;;;;6.00;4.67;;;;;;;;;;5095056;28;20429;-56
2021/09/17 04:28:42;;;;;;;9.20;4.67;;;;;;;;;;5094722;28;20458;-60
2021/09/17 04:31:10;;;;;;;12.30;5.83;;;;;;;;;;5110841;28;20451;-59
2021/09/17 04:34:05;;;;;;;8.57;5.60;;;;;;;;;;5117669;28;20456;-63
2021/09/17 04:36:34;;;;;;;10.43;6.83;;;;;;;;;;5118589;28;20466;-54
2021/09/17 04:39:03;;;;;;;7.90;6.10;;;;;;;;;;5118961;28;20447;-56
2021/09/17 04:41:32;;;;;;;8.73;6.13;;;;;;;;;;5109723;28;20463;-57
2021/09/17 04:43:59;;;;;;;9.43;5.33;;;;;;;;;;5097998;28;20443;-60
2021/09/17 04:46:28;;;;;;;11.97;6.13;;;;;;;;;;5098473;28;20511;-58
2021/09/17 04:49:03;;;;;;;6.23;4.70;;;;;;;;;;5106452;28;20451;-58
2021/09/17 04:51:31;;;;;;;8.73;5.97;;;;;;;;;;5107556;28;20451;-61
2021/09/17 04:54:00;;;;;;;9.47;5.77;;;;;;;;;;5107016;28;20451;-57
2021/09/17 04:56:40;;;;;;;10.03;6.77;;;;;;;;;;5117138;28;20531;-59
2021/09/17 04:59:07;;;;;;;9.63;6.03;;;;;;;;;;5118317;28;20997;-56
2021/09/17 05:01:38;;;;;;;8.27;5.73;;;;;;;;;;5118208;28;20465;-57
2021/09/17 05:04:09;;;;;;;13.80;6.20;;;;;;;;;;5117837;28;20477;-60
2021/09/17 05:06:36;;;;;;;9.13;5.50;;;;;;;;;;5117759;28;20482;-57
2021/09/17 05:09:05;;;;;;;14.57;6.03;;;;;;;;;;5116729;28;20455;-60
2021/09/17 05:12:01;;;;;;;13.53;6.23;;;;;;;;;;5113586;28;20436;-60
2021/09/17 05:14:29;;;;;;;14.30;5.70;;;;;;;;;;5120868;28;20489;-58
2021/09/17 05:16:56;;;;;;;14.43;7.60;;;;;;;;;;5137508;28;20491;-57
2021/09/17 05:22:27;;;;;;;8.60;7.10;;;;;;;;;;5135670;27;20448;-58
2021/09/17 05:24:55;;;;;;;8.77;6.80;;;;;;;;;;5133060;28;20470;-55
2021/09/17 05:27:34;;;;;;;7.97;6.73;;;;;;;;;;5128069;28;20451;-59
2021/09/17 05:30:02;;;;;;;10.23;6.50;;;;;;;;;;5118200;28;20443;-60
2021/09/17 05:32:38;;;;;;;8.80;6.40;;;;;;;;;;5125887;28;20503;-54
2021/09/17 05:35:09;;;;;;;13.33;6.77;;;;;;;;;;5136761;27;20482;-55
2021/09/17 05:37:37;;;;;;;9.93;6.67;;;;;;;;;;5134893;27;20496;-60
2021/09/17 05:40:13;;;;;;;10.27;7.37;;;;;;;;;;5140419;27;20511;-57
2021/09/17 05:42:49;;;;;;;11.93;7.17;;;;;;;;;;5118820;28;20510;-59
2021/09/17 05:45:19;;;;;;;8.60;6.13;;;;;;;;;;5131060;28;20458;-58
2021/09/17 05:47:48;;;;;;;16.47;6.60;;;;;;;;;;5117538;28;20459;-55
2021/09/17 05:50:32;;;;;;;8.50;6.87;;;;;;;;;;5118900;28;20487;-52
2021/09/17 05:53:15;;;;;;;7.77;6.97;;;;;;;;;;5123091;28;20446;-59
2021/09/17 05:55:46;;;;;;;9.20;5.97;;;;;;;;;;5117239;28;21007;-52
2021/09/17 05:58:30;;;;;;;9.70;7.23;;;;;;;;;;5117354;28;20463;-55
2021/09/17 06:00:59;;;;;;;8.47;7.00;;;;;;;;;;5098813;28;20435;-57
2021/09/17 06:03:30;;;;;;;9.60;6.70;;;;;;;;;;5116734;28;20451;-58
2021/09/17 06:06:08;;;;;;;8.47;6.30;;;;;;;;;;5117511;28;20435;-53
2021/09/17 06:08:36;;;;;;;9.73;6.70;;;;;;;;;;5100355;28;20493;-57
2021/09/17 06:11:05;;;;;;;7.43;6.63;;;;;;;;;;5117435;28;20486;-54
2021/09/17 06:13:32;;;;;;;9.00;7.17;;;;;;;;;;5127787;28;20466;-55
2021/09/17 06:16:02;;;;;;;9.37;5.90;;;;;;;;;;5135856;28;20474;-61
2021/09/17 06:19:02;;;;;;;12.07;7.07;;;;;;;;;;5127023;28;20473;-58
2021/09/17 06:21:29;;;;;;;12.20;7.13;;;;;;;;;;5136368;28;20610;-63
2021/09/17 06:23:56;;;;;;;10.50;7.00;;;;;;;;;;5134289;28;20458;-59
2021/09/17 06:26:40;;;;;;;7.80;7.00;;;;;;;;;;5116269;28;20467;-53
2021/09/17 06:29:08;;;;;;;12.87;6.90;;;;;;;;;;5116740;28;20451;-55
2021/09/17 06:31:39;;;;;;;12.80;7.13;;;;;;;;;;5127508;28;20476;-57
2021/09/17 06:34:26;;;;;;;10.50;6.83;;;;;;;;;;5136801;28;20672;-54
2021/09/17 06:36:56;;;;;;;13.53;6.37;;;;;;;;;;5136590;28;20493;-55
2021/09/17 06:39:25;;;;;;;10.27;6.90;;;;;;;;;;5136561;28;20442;-55
2021/09/17 06:42:07;;;;;;;14.27;8.30;;;;;;;;;;5137023;28;20459;-56
2021/09/17 06:44:35;;;;;;;12.63;7.30;;;;;;;;;;5137322;28;20486;-53
2021/09/17 06:47:12;;;;;;;11.40;7.23;;;;;;;;;;5136459;28;20450;-57
2021/09/17 06:49:42;;;;;;;9.70;7.77;;;;;;;;;;5132588;28;20504;-59
2021/09/17 06:52:13;;;;;;;13.17;7.97;;;;;;;;;;5117978;28;20446;-58
2021/09/17 06:54:45;;;;;;;7.87;6.80;;;;;;;;;;5135651;28;20482;-56
2021/09/17 06:57:15;;;;;;;14.17;8.27;;;;;;;;;;5136205;28;20431;-58
2021/09/17 06:59:43;;;;;;;12.73;9.30;;;;;;;;;;5136783;28;20455;-55
2021/09/17 07:05:14;;;;;;;16.07;7.53;;;;;;;;;;5136669;28;20507;-56
2021/09/17 07:07:43;;;;;;;12.23;8.13;;;;;;;;;;5135148;28;20507;-59
2021/09/17 07:10:22;;;;;;;7.07;6.37;;;;;;;;;;5136162;28;20469;-56
2021/09/17 07:13:04;;;;;;;11.37;8.37;;;;;;;;;;5136237;28;20707;-58
2021/09/17 07:15:54;;;;;;;12.40;7.60;;;;;;;;;;5136209;28;20458;-56
2021/09/17 07:18:22;;;;;;;11.07;6.30;;;;;;;;;;5119170;28;20459;-57
2021/09/17 07:20:57;;;;;;;11.93;7.50;;;;;;;;;;5115048;28;20485;-59
2021/09/17 07:23:30;;;;;;;20.87;12.63;;;;;;;;;;5116011;28;20504;-60
2021/09/17 07:25:58;;;;;;;16.93;8.13;;;;;;;;;;5120149;28;20472;-60
2021/09/17 07:28:41;;;;;;;18.70;8.77;;;;;;;;;;5126827;28;20837;-56
2021/09/17 07:31:08;;;;;;;18.17;9.27;;;;;;;;;;5114650;28;20461;-62
2021/09/17 07:33:36;;;;;;;9.27;7.70;;;;;;;;;;5114604;28;20454;-58
2021/09/17 07:36:10;;;;;;;12.53;8.40;;;;;;;;;;5114756;28;20518;-62
2021/09/17 07:38:38;;;;;;;17.90;7.87;;;;;;;;;;5125286;28;20455;-60
2021/09/17 07:41:05;;;;;;;14.10;8.50;;;;;;;;;;5135547;28;20454;-61
2021/09/17 07:44:00;;;;;;;20.90;8.20;;;;;;;;;;5123661;28;20489;-59
2021/09/17 07:46:29;;;;;;;16.63;9.00;;;;;;;;;;5129021;28;20482;-61
2021/09/17 07:49:00;;;;;;;13.43;9.60;;;;;;;;;;5135738;28;20485;-61
2021/09/17 07:51:31;;;;;;;10.83;8.50;;;;;;;;;;5135315;28;20446;-60
2021/09/17 07:54:01;;;;;;;14.13;7.90;;;;;;;;;;5134119;28;20454;-55
2021/09/17 07:56:29;;;;;;;11.93;8.80;;;;;;;;;;5125077;28;20555;-54
2021/09/17 07:59:01;;;;;;;9.30;7.47;;;;;;;;;;5129470;28;20462;-57
2021/09/17 08:01:33;;;;;;;15.40;8.57;;;;;;;;;;5114495;28;20656;-59
2021/09/17 08:04:01;;;;;;;12.30;8.40;;;;;;;;;;5114738;28;20641;-57
2021/09/17 08:06:34;;;;;;;14.73;10.60;;;;;;;;;;5116090;28;20523;-58
2021/09/17 08:09:01;;;;;;;16.50;9.70;;;;;;;;;;5118975;28;20459;-56
2021/09/17 08:11:29;;;;;;;18.80;10.70;;;;;;;;;;5138874;28;20453;-58
2021/09/17 08:14:18;;;;;;;17.23;10.40;;;;;;;;;;5138956;28;20450;-59
2021/09/17 08:16:47;;;;;;;16.53;9.83;;;;;;;;;;5138242;28;20488;-54
2021/09/17 08:19:15;;;;;;;12.43;8.00;;;;;;;;;;5119070;28;20443;-60
2021/09/17 08:21:46;;;;;;;16.27;9.10;;;;;;;;;;5119192;28;20478;-60
2021/09/17 08:24:16;;;;;;;16.67;9.10;;;;;;;;;;5130279;28;20496;-54
2021/09/17 08:26:44;;;;;;;10.67;8.00;;;;;;;;;;5139165;28;20437;-60
2021/09/17 08:29:41;;;;;;;14.13;10.23;;;;;;;;;;5138735;28;20446;-55
2021/09/17 08:32:11;;;;;;;13.60;10.23;;;;;;;;;;5139922;28;20559;-52
2021/09/17 08:34:45;;;;;;;16.20;9.53;;;;;;;;;;5139596;28;20490;-51
2021/09/17 08:37:26;;;;;;;16.97;9.07;;;;;;;;;;5138855;28;20494;-61
2021/09/17 08:39:54;;;;;;;15.00;10.53;;;;;;;;;;5139666;28;20456;-56
2021/09/17 08:42:21;;;;;;;12.90;10.10;;;;;;;;;;5138102;28;20454;-59
2021/09/17 08:44:49;;;;;;;20.13;10.47;;;;;;;;;;5138140;28;20465;-54
2021/09/17 08:47:25;;;;;;;20.13;12.43;;;;;;;;;;5139606;28;20454;-60
2021/09/17 08:49:55;;;;;;;14.30;9.93;;;;;;;;;;5120886;28;20479;-52
2021/09/17 08:52:40;;;;;;;18.63;10.90;;;;;;;;;;5138586;28;20444;-60
2021/09/17 08:55:18;;;;;;;17.50;10.80;;;;;;;;;;5138841;28;20422;-56
2021/09/17 08:57:46;;;;;;;16.77;11.90;;;;;;;;;;5120199;28;20477;-56
2021/09/17 09:00:32;;;;;;;16.50;10.97;;;;;;;;;;5117829;28;20451;-49
2021/09/17 09:03:32;;;;;;;19.10;11.73;;;;;;;;;;5117829;28;20550;-60
2021/09/17 09:06:12;;;;;;;14.83;11.13;;;;;;;;;;5049961;28;20433;-60
2021/09/17 09:08:44;;;;;;;16.13;13.27;;;;;;;;;;5108817;28;20783;-54
2021/09/17 09:11:31;;;;;;;19.47;13.70;;;;;;;;;;5117678;28;20463;-56
2021/09/17 09:14:05;;;;;;;21.23;12.70;;;;;;;;;;5115510;28;20494;-59
2021/09/17 09:19:38;;;;;;;17.83;10.23;;;;;;;;;;5115071;28;20475;-54
2021/09/17 09:22:17;;;;;;;16.30;12.70;;;;;;;;;;5117668;28;20487;-52
2021/09/17 09:24:49;;;;;;;14.50;10.77;;;;;;;;;;5116916;28;20463;-61
2021/09/17 09:27:20;;;;;;;14.87;11.67;;;;;;;;;;5117717;28;20444;-59
2021/09/17 09:29:58;;;;;;;20.67;14.60;;;;;;;;;;5117745;28;20769;-59
2021/09/17 09:32:28;;;;;;;17.00;12.93;;;;;;;;;;5099891;28;20455;-58
2021/09/17 09:35:04;;;;;;;15.63;11.93;;;;;;;;;;5096622;28;20459;-55
2021/09/17 09:37:38;;;;;;;14.83;10.63;;;;;;;;;;5113541;28;20495;-63
2021/09/17 09:43:29;;;;;;;15.13;11.00;;;;;;;;;;5117339;28;20450;-60
2021/09/17 09:46:19;;;;;;;19.20;13.57;;;;;;;;;;5116482;28;20574;-62
2021/09/17 09:49:09;;;;;;;14.20;12.27;;;;;;;;;;5116115;28;20498;-57
2021/09/17 09:51:45;;;;;;;12.07;10.43;;;;;;;;;;5117447;28;20449;-58
2021/09/17 09:54:15;;;;;;;21.93;17.73;;;;;;;;;;5102823;28;20486;-61
2021/09/17 09:57:00;;;;;;;19.10;12.57;;;;;;;;;;5098941;28;20544;-57
2021/09/17 09:59:34;;;;;;;21.93;14.23;;;;;;;;;;5096066;28;20467;-59
2021/09/17 10:02:26;;;;;;;26.43;13.50;;;;;;;;;;5095217;28;20501;-52
2021/09/17 10:04:57;;;;;;;17.77;13.47;;;;;;;;;;5094037;28;20483;-57
2021/09/17 10:07:28;;;;;;;16.70;11.93;;;;;;;;;;5094942;28;20488;-61
2021/09/17 10:10:00;;;;;;;14.80;12.10;;;;;;;;;;5095514;28;20460;-58
2021/09/17 10:12:28;;;;;;;25.30;14.57;;;;;;;;;;5107976;28;20522;-61
2021/09/17 10:14:57;;;;;;;16.33;13.40;;;;;;;;;;5114929;28;20465;-53
2021/09/17 10:17:27;;;;;;;16.07;14.23;;;;;;;;;;5114569;28;20491;-61
2021/09/17 10:19:55;;;;;;;14.20;11.13;;;;;;;;;;5113866;28;20663;-56
2021/09/17 10:25:27;;;;;;;17.20;13.57;;;;;;;;;;5114138;28;20426;-58
2021/09/17 10:28:10;;;;;;;19.13;15.27;;;;;;;;;;5113541;28;20459;-61
2021/09/17 10:30:39;;;;;;;20.03;14.07;;;;;;;;;;5109872;28;20518;-58
2021/09/17 10:33:22;;;;;;;22.37;12.47;;;;;;;;;;5105171;28;20444;-59
2021/09/17 10:35:49;;;;;;;20.43;11.67;;;;;;;;;;5096782;28;20471;-58
2021/09/17 10:38:25;;;;;;;17.87;12.97;;;;;;;;;;5101415;28;20523;-61
2021/09/17 10:41:04;;;;;;;18.73;14.53;;;;;;;;;;5093558;28;20501;-56
2021/09/17 10:43:38;;;;;;;17.67;13.43;;;;;;;;;;5092513;28;20512;-58
2021/09/17 10:46:14;;;;;;;15.70;13.43;;;;;;;;;;5094323;28;20425;-58
2021/09/17 10:49:02;;;;;;;17.73;14.70;;;;;;;;;;5091394;28;20456;-58
2021/09/17 10:51:32;;;;;;;18.57;13.43;;;;;;;;;;5110692;28;20699;-57
2021/09/17 10:54:00;;;;;;;19.60;12.77;;;;;;;;;;5112923;28;20461;-59
2021/09/17 10:59:55;;;;;;;18.03;12.17;;;;;;;;;;5077212;28;20725;-59
2021/09/17 11:02:41;;;;;;;16.23;10.40;;;;;;;;;;5110394;28;20470;-60
2021/09/17 11:05:26;;;;;;;16.70;11.57;;;;;;;;;;5112364;28;20467;-57
2021/09/17 11:07:54;;;;;;;14.97;13.20;;;;;;;;;;5102642;28;20487;-60
2021/09/17 11:10:29;;;;;;;21.03;12.07;;;;;;;;;;5092689;28;20421;-57
2021/09/17 11:13:07;;;;;;;16.17;12.23;;;;;;;;;;5090752;28;20685;-59
2021/09/17 11:15:36;;;;;;;11.40;9.70;;;;;;;;;;5091249;28;20474;-61
2021/09/17 11:18:08;;;;;;;13.90;11.03;;;;;;;;;;5109408;28;20516;-52
2021/09/17 11:20:44;;;;;;;11.97;10.77;;;;;;;;;;5113341;28;20513;-59
2021/09/17 11:26:31;;;;;;;12.30;11.00;;;;;;;;;;5107373;28;20446;-60
2021/09/17 11:32:31;;;;;;;16.37;13.10;;;;;;;;;;5073259;27;20504;-60
2021/09/17 11:35:04;;;;;;;16.93;13.20;;;;;;;;;;5152784;27;20596;-56
2021/09/17 11:37:32;;;;;;;14.27;12.77;;;;;;;;;;5153447;27;20496;-54
2021/09/17 11:40:34;;;;;;;19.33;14.33;;;;;;;;;;5136529;27;20438;-57
2021/09/17 11:43:16;;;;;;;19.53;14.10;;;;;;;;;;5138306;27;20469;-56
2021/09/17 11:45:46;;;;;;;22.40;14.77;;;;;;;;;;5128437;28;20438;-57
2021/09/17 11:48:51;;;;;;;22.60;14.80;;;;;;;;;;5145403;27;20454;-61
2021/09/17 11:51:27;;;;;;;19.87;15.63;;;;;;;;;;5143387;27;20422;-56
2021/09/17 11:54:10;;;;;;;20.87;15.07;;;;;;;;;;5151179;27;20453;-58
2021/09/17 11:56:37;;;;;;;18.83;13.53;;;;;;;;;;5148729;28;20470;-54
2021/09/17 11:59:05;;;;;;;16.10;12.87;;;;;;;;;;5132804;28;20455;-59
2021/09/17 12:01:42;;;;;;;14.80;12.37;;;;;;;;;;5135733;28;20483;-62
2021/09/17 12:04:11;;;;;;;16.83;14.70;;;;;;;;;;5137260;28;20484;-55
2021/09/17 12:06:40;;;;;;;20.20;14.60;;;;;;;;;;5131713;28;20628;-59
2021/09/17 12:09:10;;;;;;;24.30;15.30;;;;;;;;;;5132608;28;20458;-60
2021/09/17 12:11:38;;;;;;;21.70;15.40;;;;;;;;;;5123963;28;20455;-60
2021/09/17 12:14:07;;;;;;;20.43;17.10;;;;;;;;;;5110630;28;20536;-58
2021/09/17 12:16:50;;;;;;;20.50;14.50;;;;;;;;;;5113484;28;20463;-58
2021/09/17 12:19:27;;;;;;;26.00;16.70;;;;;;;;;;5110833;28;20448;-58
2021/09/17 12:22:05;;;;;;;26.00;14.60;;;;;;;;;;5111816;28;20466;-56
2021/09/17 12:24:46;;;;;;;20.83;15.27;;;;;;;;;;5112154;28;20470;-60
2021/09/17 12:27:13;;;;;;;18.30;14.10;;;;;;;;;;5106427;28;20447;-61
2021/09/17 12:33:06;;;;;;;17.40;14.67;;;;;;;;;;5133179;28;20449;-60
2021/09/17 12:35:36;;;;;;;17.63;14.40;;;;;;;;;;5114649;28;20455;-56
2021/09/17 12:38:13;;;;;;;21.00;15.23;;;;;;;;;;5121571;28;20470;-56
2021/09/17 12:40:53;;;;;;;25.10;15.27;;;;;;;;;;5130435;28;20493;-58
2021/09/17 12:46:24;;;;;;;16.27;14.17;;;;;;;;;;5110540;28;20421;-54
2021/09/17 12:48:54;;;;;;;18.57;14.23;;;;;;;;;;5125943;28;20490;-55
2021/09/17 12:51:36;;;;;;;20.60;16.70;;;;;;;;;;5131086;28;20454;-56
2021/09/17 12:54:18;;;;;;;19.63;13.77;;;;;;;;;;5134333;28;20492;-62
2021/09/17 12:56:45;;;;;;;16.20;13.00;;;;;;;;;;5135363;28;20510;-58
2021/09/17 12:59:14;;;;;;;18.63;13.40;;;;;;;;;;5133495;28;20513;-61
2021/09/17 13:01:49;;;;;;;21.60;14.30;;;;;;;;;;5133371;28;20438;-61
2021/09/17 13:04:19;;;;;;;21.27;15.03;;;;;;;;;;5131200;28;20442;-55
2021/09/17 13:07:02;;;;;;;16.67;14.40;;;;;;;;;;5115733;28;20467;-61
2021/09/17 13:09:30;;;;;;;15.27;13.60;;;;;;;;;;5091844;28;20471;-59
2021/09/17 13:17:39;;;;;;;18.60;16.63;;;;;;;;;;5100819;28;20491;-57
2021/09/17 13:20:08;;;;;;;16.23;14.53;;;;;;;;;;5115343;28;20240;-55
2021/09/17 13:22:42;;;;;;;17.67;15.77;;;;;;;;;;5114185;28;20445;-54
2021/09/17 13:25:11;;;;;;;18.17;16.37;;;;;;;;;;5101894;28;20531;-60
2021/09/17 13:27:42;;;;;;;21.70;18.53;;;;;;;;;;5110686;28;20471;-60
2021/09/17 13:30:11;;;;;;;23.00;20.23;;;;;;;;;;5103943;28;20431;-60
2021/09/17 13:32:40;;;;;;;17.50;15.70;;;;;;;;;;5102672;28;20483;-58
2021/09/17 13:35:10;;;;;;;18.40;15.93;;;;;;;;;;5100444;28;20864;-57
2021/09/17 13:37:46;;;;;;;18.17;16.27;;;;;;;;;;5095322;28;20472;-58
2021/09/17 13:40:43;;;;;;;19.73;17.63;;;;;;;;;;5106764;28;20435;-59
2021/09/17 13:43:29;;;;;;;17.40;14.63;;;;;;;;;;5111129;28;20507;-62
2021/09/17 13:46:17;;;;;;;19.07;17.03;;;;;;;;;;5105648;28;20456;-61
2021/09/17 13:48:59;;;;;;;19.77;16.80;;;;;;;;;;5111807;28;20465;-60
2021/09/17 13:51:27;;;;;;;17.30;14.13;;;;;;;;;;5114070;28;20451;-57
2021/09/17 13:53:54;;;;;;;16.03;13.57;;;;;;;;;;5112456;28;20465;-60
2021/09/17 13:56:21;;;;;;;17.43;15.53;;;;;;;;;;5113364;28;20485;-61
2021/09/17 13:58:52;;;;;;;16.90;12.50;;;;;;;;;;5102374;28;20550;-57
2021/09/17 14:01:36;;;;;;;21.30;16.63;;;;;;;;;;5108922;28;20502;-62
2021/09/17 14:04:10;;;;;;;16.63;14.83;;;;;;;;;;5111005;28;20459;-60
2021/09/17 14:06:40;;;;;;;19.73;17.10;;;;;;;;;;5108703;28;20431;-58
2021/09/17 14:09:09;;;;;;;21.17;17.67;;;;;;;;;;5113768;28;20459;-58
2021/09/17 14:11:48;;;;;;;16.43;14.73;;;;;;;;;;5111119;28;20449;-57
2021/09/17 14:14:15;;;;;;;28.13;21.90;;;;;;;;;;5113329;28;20451;-57
2021/09/17 14:16:42;;;;;;;47.10;35.80;;;;;;;;;;5112145;28;20445;-60
2021/09/17 14:19:15;;;;;;;20.20;18.20;;;;;;;;;;5114393;28;20451;-59
2021/09/17 14:21:43;;;;;;;18.83;16.07;;;;;;;;;;5115518;28;20461;-60
2021/09/17 14:24:25;;;;;;;18.03;16.13;;;;;;;;;;5115217;28;20439;-59
2021/09/17 14:26:52;;;;;;;14.70;13.10;;;;;;;;;;5115058;28;20483;-58
2021/09/17 14:29:19;;;;;;;14.93;13.43;;;;;;;;;;5115362;28;20434;-56
2021/09/17 14:31:49;;;;;;;15.07;13.30;;;;;;;;;;5111092;28;20523;-57
2021/09/17 14:34:18;;;;;;;15.93;14.33;;;;;;;;;;5094499;28;20540;-63
2021/09/17 14:36:49;;;;;;;17.70;14.57;;;;;;;;;;5094666;28;20490;-59
2021/09/17 14:39:34;;;;;;;17.43;14.83;;;;;;;;;;5111580;28;20467;-61
2021/09/17 14:42:03;;;;;;;16.50;13.90;;;;;;;;;;5113755;28;20443;-57
2021/09/17 14:44:31;;;;;;;18.13;13.47;;;;;;;;;;5113321;28;20452;-59
2021/09/17 14:46:59;;;;;;;15.97;13.80;;;;;;;;;;5109153;28;20483;-58
2021/09/17 14:49:38;;;;;;;15.40;13.23;;;;;;;;;;5102797;28;20474;-60
2021/09/17 14:52:10;;;;;;;15.03;13.27;;;;;;;;;;5103045;28;20523;-60
2021/09/17 14:54:37;;;;;;;16.40;13.57;;;;;;;;;;5108243;28;20448;-63
2021/09/17 14:57:05;;;;;;;20.60;12.73;;;;;;;;;;5110696;28;20481;-60
2021/09/17 14:59:49;;;;;;;19.13;17.23;;;;;;;;;;5109041;28;20443;-57
2021/09/17 15:02:22;;;;;;;14.90;13.17;;;;;;;;;;5110224;28;20553;-56
2021/09/17 15:04:52;;;;;;;17.20;14.63;;;;;;;;;;5112891;28;20459;-60
2021/09/17 15:07:27;;;;;;;17.60;12.50;;;;;;;;;;5109616;28;20680;-54
2021/09/17 15:09:54;;;;;;;24.33;15.80;;;;;;;;;;5112835;28;20453;-59
2021/09/17 15:12:34;;;;;;;18.77;13.33;;;;;;;;;;5102745;28;20459;-58
2021/09/17 15:15:03;;;;;;;18.03;14.50;;;;;;;;;;5100741;28;20458;-59
2021/09/17 15:17:31;;;;;;;14.83;13.40;;;;;;;;;;5106434;28;20480;-60
2021/09/17 15:20:00;;;;;;;15.73;14.03;;;;;;;;;;5112288;28;20522;-55
2021/09/17 15:22:29;;;;;;;13.83;11.23;;;;;;;;;;5109747;28;20451;-53
2021/09/17 15:24:56;;;;;;;16.27;14.20;;;;;;;;;;5110719;28;20437;-59
2021/09/17 15:27:38;;;;;;;14.17;12.67;;;;;;;;;;5111791;28;20538;-58
2021/09/17 15:30:07;;;;;;;15.70;14.10;;;;;;;;;;5107462;28;20447;-57
2021/09/17 15:32:35;;;;;;;17.43;15.57;;;;;;;;;;5112136;28;20470;-60
2021/09/17 15:35:14;;;;;;;17.37;15.57;;;;;;;;;;5114715;28;20462;-53
2021/09/17 15:37:41;;;;;;;18.20;14.70;;;;;;;;;;5106581;28;20544;-57
2021/09/17 15:40:11;;;;;;;16.40;13.90;;;;;;;;;;5109267;28;20527;-60
2021/09/17 15:42:40;;;;;;;15.80;14.10;;;;;;;;;;5104249;28;20474;-61